sensor_id;sensor_type;location;lat;lon;timestamp;temperature;humidity
44170;DHT22;29836;52.286;9.576;2024-03-22T00:00:32;8.70;99.90
44170;DHT22;29836;52.286;9.576;2024-03-22T00:02:58;8.70;99.90
44170;DHT22;29836;52.286;9.576;2024-03-22T00:05:23;8.70;99.90
44170;DHT22;29836;52.286;9.576;2024-03-22T00:07:49;8.70;99.90
44170;DHT22;29836;52.286;9.576;2024-03-22T00:10:15;8.70;99.90
44170;DHT22;29836;52.286;9.576;2024-03-22T00:12:40;8.70;99.90
44170;DHT22;29836;52.286;9.576;2024-03-22T00:15:06;8.80;99.90
44170;DHT22;29836;52.286;9.576;2024-03-22T00:17:32;8.80;99.90
44170;DHT22;29836;52.286;9.576;2024-03-22T00:19:58;8.80;99.90
44170;DHT22;29836;52.286;9.576;2024-03-22T00:22:24;8.80;99.90
44170;DHT22;29836;52.286;9.576;2024-03-22T00:24:50;8.80;99.90
44170;DHT22;29836;52.286;9.576;2024-03-22T00:27:15;8.90;99.90
44170;DHT22;29836;52.286;9.576;2024-03-22T00:29:41;8.90;99.90
44170;DHT22;29836;52.286;9.576;2024-03-22T00:32:06;8.90;99.90
44170;DHT22;29836;52.286;9.576;2024-03-22T00:34:33;9.00;99.90
44170;DHT22;29836;52.286;9.576;2024-03-22T00:36:59;9.00;99.90
44170;DHT22;29836;52.286;9.576;2024-03-22T00:39:24;9.00;99.90
44170;DHT22;29836;52.286;9.576;2024-03-22T00:41:50;9.00;99.90
44170;DHT22;29836;52.286;9.576;2024-03-22T00:44:15;9.10;99.90
44170;DHT22;29836;52.286;9.576;2024-03-22T00:46:41;9.10;99.90
44170;DHT22;29836;52.286;9.576;2024-03-22T00:49:06;9.10;99.90
44170;DHT22;29836;52.286;9.576;2024-03-22T00:51:32;9.10;99.90
44170;DHT22;29836;52.286;9.576;2024-03-22T00:53:57;9.10;99.90
44170;DHT22;29836;52.286;9.576;2024-03-22T00:56:23;9.10;99.90
44170;DHT22;29836;52.286;9.576;2024-03-22T00:58:48;9.10;99.90
44170;DHT22;29836;52.286;9.576;2024-03-22T01:01:14;9.10;99.90
44170;DHT22;29836;52.286;9.576;2024-03-22T01:03:39;9.20;99.90
44170;DHT22;29836;52.286;9.576;2024-03-22T01:06:05;9.20;99.90
44170;DHT22;29836;52.286;9.576;2024-03-22T01:08:31;9.20;99.90
44170;DHT22;29836;52.286;9.576;2024-03-22T01:10:56;9.20;99.90
44170;DHT22;29836;52.286;9.576;2024-03-22T01:13:22;9.30;99.90
44170;DHT22;29836;52.286;9.576;2024-03-22T01:15:48;9.20;99.90
44170;DHT22;29836;52.286;9.576;2024-03-22T01:18:13;9.20;99.90
44170;DHT22;29836;52.286;9.576;2024-03-22T01:20:39;9.30;99.90
44170;DHT22;29836;52.286;9.576;2024-03-22T01:23:05;9.30;99.90
44170;DHT22;29836;52.286;9.576;2024-03-22T01:25:30;9.30;99.90
44170;DHT22;29836;52.286;9.576;2024-03-22T01:27:56;9.30;99.90
44170;DHT22;29836;52.286;9.576;2024-03-22T01:30:22;9.30;99.90
44170;DHT22;29836;52.286;9.576;2024-03-22T01:32:48;9.30;99.90
44170;DHT22;29836;52.286;9.576;2024-03-22T01:35:13;9.30;99.90
44170;DHT22;29836;52.286;9.576;2024-03-22T01:37:39;9.30;99.90
44170;DHT22;29836;52.286;9.576;2024-03-22T01:40:05;9.30;99.90
44170;DHT22;29836;52.286;9.576;2024-03-22T01:42:31;9.30;99.90
44170;DHT22;29836;52.286;9.576;2024-03-22T01:44:56;9.30;99.90
44170;DHT22;29836;52.286;9.576;2024-03-22T01:47:22;9.40;99.90
44170;DHT22;29836;52.286;9.576;2024-03-22T01:49:49;9.40;99.90
44170;DHT22;29836;52.286;9.576;2024-03-22T01:52:15;9.40;99.90
44170;DHT22;29836;52.286;9.576;2024-03-22T01:54:41;9.40;99.90
44170;DHT22;29836;52.286;9.576;2024-03-22T01:57:08;9.40;99.90
44170;DHT22;29836;52.286;9.576;2024-03-22T01:59:33;9.40;99.90
44170;DHT22;29836;52.286;9.576;2024-03-22T02:01:59;9.40;99.90
44170;DHT22;29836;52.286;9.576;2024-03-22T02:04:25;9.40;99.90
44170;DHT22;29836;52.286;9.576;2024-03-22T02:06:50;9.30;99.90
44170;DHT22;29836;52.286;9.576;2024-03-22T02:09:16;9.30;99.90
44170;DHT22;29836;52.286;9.576;2024-03-22T02:11:42;9.30;99.90
44170;DHT22;29836;52.286;9.576;2024-03-22T02:14:08;9.30;99.90
44170;DHT22;29836;52.286;9.576;2024-03-22T02:16:33;9.30;99.90
44170;DHT22;29836;52.286;9.576;2024-03-22T02:18:59;9.30;99.90
44170;DHT22;29836;52.286;9.576;2024-03-22T02:21:24;9.30;99.90
44170;DHT22;29836;52.286;9.576;2024-03-22T02:23:50;9.20;99.90
44170;DHT22;29836;52.286;9.576;2024-03-22T02:26:15;9.20;99.90
44170;DHT22;29836;52.286;9.576;2024-03-22T02:28:41;9.20;99.90
44170;DHT22;29836;52.286;9.576;2024-03-22T02:31:06;9.20;99.90
44170;DHT22;29836;52.286;9.576;2024-03-22T02:33:32;9.20;99.90
44170;DHT22;29836;52.286;9.576;2024-03-22T02:35:58;9.20;99.90
44170;DHT22;29836;52.286;9.576;2024-03-22T02:38:23;9.20;99.90
44170;DHT22;29836;52.286;9.576;2024-03-22T02:40:50;9.10;99.90
44170;DHT22;29836;52.286;9.576;2024-03-22T02:43:16;9.10;99.90
44170;DHT22;29836;52.286;9.576;2024-03-22T02:45:44;9.10;99.90
44170;DHT22;29836;52.286;9.576;2024-03-22T02:48:09;9.10;99.90
44170;DHT22;29836;52.286;9.576;2024-03-22T02:50:38;9.10;99.90
44170;DHT22;29836;52.286;9.576;2024-03-22T02:53:04;9.10;99.90
44170;DHT22;29836;52.286;9.576;2024-03-22T02:55:35;9.10;99.90
44170;DHT22;29836;52.286;9.576;2024-03-22T02:58:01;9.20;99.90
44170;DHT22;29836;52.286;9.576;2024-03-22T03:00:26;9.30;99.90
44170;DHT22;29836;52.286;9.576;2024-03-22T03:02:52;9.30;99.90
44170;DHT22;29836;52.286;9.576;2024-03-22T03:05:18;9.30;99.90
44170;DHT22;29836;52.286;9.576;2024-03-22T03:07:43;9.30;99.90
44170;DHT22;29836;52.286;9.576;2024-03-22T03:10:09;9.40;99.90
44170;DHT22;29836;52.286;9.576;2024-03-22T03:12:35;9.40;99.90
44170;DHT22;29836;52.286;9.576;2024-03-22T03:15:01;9.40;99.90
44170;DHT22;29836;52.286;9.576;2024-03-22T03:17:28;9.40;99.90
44170;DHT22;29836;52.286;9.576;2024-03-22T03:19:53;9.40;99.90
44170;DHT22;29836;52.286;9.576;2024-03-22T03:22:19;9.30;99.90
44170;DHT22;29836;52.286;9.576;2024-03-22T03:24:44;9.30;99.90
44170;DHT22;29836;52.286;9.576;2024-03-22T03:27:10;9.30;99.90
44170;DHT22;29836;52.286;9.576;2024-03-22T03:29:35;9.30;99.90
44170;DHT22;29836;52.286;9.576;2024-03-22T03:32:01;9.30;99.90
44170;DHT22;29836;52.286;9.576;2024-03-22T03:34:26;9.30;99.90
44170;DHT22;29836;52.286;9.576;2024-03-22T03:36:52;9.30;99.90
44170;DHT22;29836;52.286;9.576;2024-03-22T03:39:17;9.30;99.90
44170;DHT22;29836;52.286;9.576;2024-03-22T03:41:43;9.20;99.90
44170;DHT22;29836;52.286;9.576;2024-03-22T03:44:08;9.20;99.90
44170;DHT22;29836;52.286;9.576;2024-03-22T03:46:34;9.20;99.90
44170;DHT22;29836;52.286;9.576;2024-03-22T03:48:59;9.20;99.90
44170;DHT22;29836;52.286;9.576;2024-03-22T03:51:25;9.10;99.90
44170;DHT22;29836;52.286;9.576;2024-03-22T03:53:50;9.10;99.90
44170;DHT22;29836;52.286;9.576;2024-03-22T03:56:16;9.20;99.90
44170;DHT22;29836;52.286;9.576;2024-03-22T03:58:41;9.20;99.90
44170;DHT22;29836;52.286;9.576;2024-03-22T04:01:08;9.20;99.90
44170;DHT22;29836;52.286;9.576;2024-03-22T04:03:34;9.20;99.90
44170;DHT22;29836;52.286;9.576;2024-03-22T04:06:00;9.30;99.90
44170;DHT22;29836;52.286;9.576;2024-03-22T04:08:26;9.30;99.90
44170;DHT22;29836;52.286;9.576;2024-03-22T04:10:53;9.40;99.90
44170;DHT22;29836;52.286;9.576;2024-03-22T04:13:18;9.40;99.90
44170;DHT22;29836;52.286;9.576;2024-03-22T04:15:44;9.40;99.90
44170;DHT22;29836;52.286;9.576;2024-03-22T04:18:09;9.50;99.90
44170;DHT22;29836;52.286;9.576;2024-03-22T04:20:35;9.60;99.90
44170;DHT22;29836;52.286;9.576;2024-03-22T04:23:00;9.60;99.90
44170;DHT22;29836;52.286;9.576;2024-03-22T04:25:26;9.70;99.90
44170;DHT22;29836;52.286;9.576;2024-03-22T04:27:51;9.70;99.90
44170;DHT22;29836;52.286;9.576;2024-03-22T04:30:17;9.70;99.90
44170;DHT22;29836;52.286;9.576;2024-03-22T04:32:42;9.70;99.90
44170;DHT22;29836;52.286;9.576;2024-03-22T04:35:10;9.70;99.90
44170;DHT22;29836;52.286;9.576;2024-03-22T04:37:36;9.70;99.90
44170;DHT22;29836;52.286;9.576;2024-03-22T04:40:02;9.60;99.90
44170;DHT22;29836;52.286;9.576;2024-03-22T04:42:28;9.60;99.90
44170;DHT22;29836;52.286;9.576;2024-03-22T04:44:53;9.50;99.90
44170;DHT22;29836;52.286;9.576;2024-03-22T04:47:20;9.50;99.90
44170;DHT22;29836;52.286;9.576;2024-03-22T04:49:45;9.50;99.90
44170;DHT22;29836;52.286;9.576;2024-03-22T04:52:11;9.60;99.90
44170;DHT22;29836;52.286;9.576;2024-03-22T04:54:36;9.60;99.90
44170;DHT22;29836;52.286;9.576;2024-03-22T04:57:02;9.60;99.90
44170;DHT22;29836;52.286;9.576;2024-03-22T04:59:28;9.60;99.90
44170;DHT22;29836;52.286;9.576;2024-03-22T05:01:53;9.60;99.90
44170;DHT22;29836;52.286;9.576;2024-03-22T05:04:19;9.60;99.90
44170;DHT22;29836;52.286;9.576;2024-03-22T05:06:44;9.60;99.90
44170;DHT22;29836;52.286;9.576;2024-03-22T05:09:10;9.60;99.90
44170;DHT22;29836;52.286;9.576;2024-03-22T05:11:36;9.60;99.90
44170;DHT22;29836;52.286;9.576;2024-03-22T05:14:01;9.60;99.90
44170;DHT22;29836;52.286;9.576;2024-03-22T05:16:27;9.60;99.90
44170;DHT22;29836;52.286;9.576;2024-03-22T05:18:53;9.60;99.90
44170;DHT22;29836;52.286;9.576;2024-03-22T05:21:18;9.60;99.90
44170;DHT22;29836;52.286;9.576;2024-03-22T05:23:44;9.60;99.90
44170;DHT22;29836;52.286;9.576;2024-03-22T05:26:09;9.70;99.90
44170;DHT22;29836;52.286;9.576;2024-03-22T05:28:35;9.70;99.90
44170;DHT22;29836;52.286;9.576;2024-03-22T05:31:01;9.80;99.90
44170;DHT22;29836;52.286;9.576;2024-03-22T05:33:26;9.80;99.90
44170;DHT22;29836;52.286;9.576;2024-03-22T05:35:52;9.80;99.90
44170;DHT22;29836;52.286;9.576;2024-03-22T05:38:18;9.80;99.90
44170;DHT22;29836;52.286;9.576;2024-03-22T05:40:43;9.80;99.90
44170;DHT22;29836;52.286;9.576;2024-03-22T05:43:11;9.80;99.90
44170;DHT22;29836;52.286;9.576;2024-03-22T05:45:37;9.90;99.90
44170;DHT22;29836;52.286;9.576;2024-03-22T05:48:04;9.90;99.90
44170;DHT22;29836;52.286;9.576;2024-03-22T05:50:29;10.00;99.90
44170;DHT22;29836;52.286;9.576;2024-03-22T05:52:55;10.00;99.90
44170;DHT22;29836;52.286;9.576;2024-03-22T05:55:20;10.10;99.90
44170;DHT22;29836;52.286;9.576;2024-03-22T05:57:46;10.10;99.90
44170;DHT22;29836;52.286;9.576;2024-03-22T06:00:11;10.10;99.90
44170;DHT22;29836;52.286;9.576;2024-03-22T06:02:38;10.20;99.90
44170;DHT22;29836;52.286;9.576;2024-03-22T06:05:04;10.20;99.90
44170;DHT22;29836;52.286;9.576;2024-03-22T06:07:30;10.30;99.90
44170;DHT22;29836;52.286;9.576;2024-03-22T06:10:04;10.40;99.90
44170;DHT22;29836;52.286;9.576;2024-03-22T06:12:30;10.40;99.90
44170;DHT22;29836;52.286;9.576;2024-03-22T06:14:55;10.40;99.90
44170;DHT22;29836;52.286;9.576;2024-03-22T06:17:21;10.50;99.90
44170;DHT22;29836;52.286;9.576;2024-03-22T06:19:46;10.50;99.90
44170;DHT22;29836;52.286;9.576;2024-03-22T06:22:12;10.50;99.90
44170;DHT22;29836;52.286;9.576;2024-03-22T06:24:38;10.60;99.90
44170;DHT22;29836;52.286;9.576;2024-03-22T06:27:03;10.70;99.90
44170;DHT22;29836;52.286;9.576;2024-03-22T06:29:29;10.80;99.90
44170;DHT22;29836;52.286;9.576;2024-03-22T06:31:54;10.80;99.90
44170;DHT22;29836;52.286;9.576;2024-03-22T06:34:20;10.80;99.90
44170;DHT22;29836;52.286;9.576;2024-03-22T06:36:46;10.90;99.90
44170;DHT22;29836;52.286;9.576;2024-03-22T06:39:12;11.00;99.90
44170;DHT22;29836;52.286;9.576;2024-03-22T06:41:38;11.10;99.90
44170;DHT22;29836;52.286;9.576;2024-03-22T06:44:03;11.10;99.90
44170;DHT22;29836;52.286;9.576;2024-03-22T06:46:29;11.20;99.90
44170;DHT22;29836;52.286;9.576;2024-03-22T06:48:55;11.20;99.90
44170;DHT22;29836;52.286;9.576;2024-03-22T06:51:21;11.20;99.90
44170;DHT22;29836;52.286;9.576;2024-03-22T06:53:46;11.20;99.90
44170;DHT22;29836;52.286;9.576;2024-03-22T06:56:13;11.30;99.90
44170;DHT22;29836;52.286;9.576;2024-03-22T06:58:39;11.30;99.90
44170;DHT22;29836;52.286;9.576;2024-03-22T07:01:05;11.30;99.90
44170;DHT22;29836;52.286;9.576;2024-03-22T07:03:30;11.30;99.90
44170;DHT22;29836;52.286;9.576;2024-03-22T07:05:56;11.30;99.90
44170;DHT22;29836;52.286;9.576;2024-03-22T07:08:23;11.40;99.90
44170;DHT22;29836;52.286;9.576;2024-03-22T07:10:50;11.50;99.90
44170;DHT22;29836;52.286;9.576;2024-03-22T07:13:16;11.70;99.90
44170;DHT22;29836;52.286;9.576;2024-03-22T07:15:43;11.90;99.90
44170;DHT22;29836;52.286;9.576;2024-03-22T07:18:09;11.90;99.90
44170;DHT22;29836;52.286;9.576;2024-03-22T07:20:34;12.00;99.90
44170;DHT22;29836;52.286;9.576;2024-03-22T07:23:00;12.10;99.90
44170;DHT22;29836;52.286;9.576;2024-03-22T07:25:25;12.10;99.90
44170;DHT22;29836;52.286;9.576;2024-03-22T07:27:51;12.20;99.90
44170;DHT22;29836;52.286;9.576;2024-03-22T07:30:16;12.10;99.90
44170;DHT22;29836;52.286;9.576;2024-03-22T07:32:42;12.10;99.90
44170;DHT22;29836;52.286;9.576;2024-03-22T07:35:07;12.10;99.90
44170;DHT22;29836;52.286;9.576;2024-03-22T07:37:33;12.10;99.90
44170;DHT22;29836;52.286;9.576;2024-03-22T07:40:03;12.20;99.90
44170;DHT22;29836;52.286;9.576;2024-03-22T07:42:30;12.20;99.90
44170;DHT22;29836;52.286;9.576;2024-03-22T07:44:56;12.20;99.90
44170;DHT22;29836;52.286;9.576;2024-03-22T07:47:21;12.10;99.90
44170;DHT22;29836;52.286;9.576;2024-03-22T07:49:47;12.20;99.90
44170;DHT22;29836;52.286;9.576;2024-03-22T07:52:12;12.20;99.90
44170;DHT22;29836;52.286;9.576;2024-03-22T07:54:38;12.30;99.90
44170;DHT22;29836;52.286;9.576;2024-03-22T07:57:03;12.30;99.90
44170;DHT22;29836;52.286;9.576;2024-03-22T07:59:29;12.30;99.90
44170;DHT22;29836;52.286;9.576;2024-03-22T08:01:55;12.40;99.90
44170;DHT22;29836;52.286;9.576;2024-03-22T08:04:20;12.40;99.90
44170;DHT22;29836;52.286;9.576;2024-03-22T08:06:46;12.50;99.90
44170;DHT22;29836;52.286;9.576;2024-03-22T08:09:11;12.60;99.90
44170;DHT22;29836;52.286;9.576;2024-03-22T08:11:37;12.50;99.90
44170;DHT22;29836;52.286;9.576;2024-03-22T08:14:02;12.50;99.90
44170;DHT22;29836;52.286;9.576;2024-03-22T08:16:31;12.50;99.90
44170;DHT22;29836;52.286;9.576;2024-03-22T08:18:57;12.40;99.90
44170;DHT22;29836;52.286;9.576;2024-03-22T08:21:23;12.50;99.90
44170;DHT22;29836;52.286;9.576;2024-03-22T08:23:50;12.50;99.90
44170;DHT22;29836;52.286;9.576;2024-03-22T08:26:16;12.60;99.90
44170;DHT22;29836;52.286;9.576;2024-03-22T08:28:41;12.50;99.90
44170;DHT22;29836;52.286;9.576;2024-03-22T08:31:07;12.60;99.90
44170;DHT22;29836;52.286;9.576;2024-03-22T08:33:32;12.60;99.90
44170;DHT22;29836;52.286;9.576;2024-03-22T08:35:58;12.60;99.90
44170;DHT22;29836;52.286;9.576;2024-03-22T08:38:23;12.70;99.90
44170;DHT22;29836;52.286;9.576;2024-03-22T08:40:50;12.60;99.90
44170;DHT22;29836;52.286;9.576;2024-03-22T08:43:15;12.70;99.90
44170;DHT22;29836;52.286;9.576;2024-03-22T08:45:41;12.80;99.90
44170;DHT22;29836;52.286;9.576;2024-03-22T08:48:07;12.70;99.90
44170;DHT22;29836;52.286;9.576;2024-03-22T08:50:33;12.80;99.90
44170;DHT22;29836;52.286;9.576;2024-03-22T08:52:59;12.70;99.90
44170;DHT22;29836;52.286;9.576;2024-03-22T08:55:29;12.80;99.90
44170;DHT22;29836;52.286;9.576;2024-03-22T08:57:54;12.70;99.90
44170;DHT22;29836;52.286;9.576;2024-03-22T09:00:20;12.70;99.90
44170;DHT22;29836;52.286;9.576;2024-03-22T09:02:46;12.70;99.90
44170;DHT22;29836;52.286;9.576;2024-03-22T09:05:12;12.60;99.90
44170;DHT22;29836;52.286;9.576;2024-03-22T09:07:38;12.70;99.90
44170;DHT22;29836;52.286;9.576;2024-03-22T09:10:04;12.80;99.90
44170;DHT22;29836;52.286;9.576;2024-03-22T09:12:30;12.80;99.90
44170;DHT22;29836;52.286;9.576;2024-03-22T09:14:55;12.80;99.90
44170;DHT22;29836;52.286;9.576;2024-03-22T09:17:21;12.90;99.90
44170;DHT22;29836;52.286;9.576;2024-03-22T09:19:46;12.90;99.90
44170;DHT22;29836;52.286;9.576;2024-03-22T09:22:13;12.90;99.90
44170;DHT22;29836;52.286;9.576;2024-03-22T09:24:38;12.90;99.90
44170;DHT22;29836;52.286;9.576;2024-03-22T09:27:04;12.90;99.90
44170;DHT22;29836;52.286;9.576;2024-03-22T09:29:34;13.00;99.90
44170;DHT22;29836;52.286;9.576;2024-03-22T09:31:59;13.00;99.90
44170;DHT22;29836;52.286;9.576;2024-03-22T09:34:25;13.00;99.90
44170;DHT22;29836;52.286;9.576;2024-03-22T09:36:50;13.00;99.90
44170;DHT22;29836;52.286;9.576;2024-03-22T09:39:16;12.90;99.90
44170;DHT22;29836;52.286;9.576;2024-03-22T09:41:43;12.90;99.90
44170;DHT22;29836;52.286;9.576;2024-03-22T09:44:13;13.00;99.90
44170;DHT22;29836;52.286;9.576;2024-03-22T09:46:42;13.00;99.90
44170;DHT22;29836;52.286;9.576;2024-03-22T09:49:10;13.00;99.90
44170;DHT22;29836;52.286;9.576;2024-03-22T09:51:37;13.00;99.90
44170;DHT22;29836;52.286;9.576;2024-03-22T09:54:03;13.10;99.90
44170;DHT22;29836;52.286;9.576;2024-03-22T09:56:30;13.00;99.90
44170;DHT22;29836;52.286;9.576;2024-03-22T09:58:57;13.10;99.90
44170;DHT22;29836;52.286;9.576;2024-03-22T10:01:24;13.10;99.90
44170;DHT22;29836;52.286;9.576;2024-03-22T10:03:52;13.30;99.90
44170;DHT22;29836;52.286;9.576;2024-03-22T10:06:18;13.40;99.90
44170;DHT22;29836;52.286;9.576;2024-03-22T10:08:44;13.40;99.90
44170;DHT22;29836;52.286;9.576;2024-03-22T10:11:10;13.40;99.90
44170;DHT22;29836;52.286;9.576;2024-03-22T10:13:36;13.40;99.90
44170;DHT22;29836;52.286;9.576;2024-03-22T10:16:01;13.30;99.90
44170;DHT22;29836;52.286;9.576;2024-03-22T10:18:27;13.10;99.90
44170;DHT22;29836;52.286;9.576;2024-03-22T10:21:05;12.90;99.90
44170;DHT22;29836;52.286;9.576;2024-03-22T10:23:31;12.90;99.90
44170;DHT22;29836;52.286;9.576;2024-03-22T10:25:57;12.90;99.90
44170;DHT22;29836;52.286;9.576;2024-03-22T10:28:26;12.80;99.90
44170;DHT22;29836;52.286;9.576;2024-03-22T10:30:52;12.90;99.90
44170;DHT22;29836;52.286;9.576;2024-03-22T10:33:21;12.90;99.90
44170;DHT22;29836;52.286;9.576;2024-03-22T10:35:52;12.90;99.90
44170;DHT22;29836;52.286;9.576;2024-03-22T10:38:19;12.70;99.90
44170;DHT22;29836;52.286;9.576;2024-03-22T10:40:45;12.30;99.90
44170;DHT22;29836;52.286;9.576;2024-03-22T10:43:13;12.00;99.90
44170;DHT22;29836;52.286;9.576;2024-03-22T10:45:38;11.90;99.90
44170;DHT22;29836;52.286;9.576;2024-03-22T10:48:10;11.70;99.90
44170;DHT22;29836;52.286;9.576;2024-03-22T10:50:40;11.70;99.90
44170;DHT22;29836;52.286;9.576;2024-03-22T10:53:11;11.60;99.90
44170;DHT22;29836;52.286;9.576;2024-03-22T10:55:44;11.70;99.90
44170;DHT22;29836;52.286;9.576;2024-03-22T10:58:17;11.70;99.90
44170;DHT22;29836;52.286;9.576;2024-03-22T11:00:43;11.80;99.90
44170;DHT22;29836;52.286;9.576;2024-03-22T11:03:09;12.00;99.90
44170;DHT22;29836;52.286;9.576;2024-03-22T11:05:45;12.20;99.90
44170;DHT22;29836;52.286;9.576;2024-03-22T11:08:11;12.30;99.90
44170;DHT22;29836;52.286;9.576;2024-03-22T11:10:37;12.30;99.90
44170;DHT22;29836;52.286;9.576;2024-03-22T11:13:04;12.40;99.90
44170;DHT22;29836;52.286;9.576;2024-03-22T11:15:30;12.50;99.90
44170;DHT22;29836;52.286;9.576;2024-03-22T11:17:56;12.50;99.90
44170;DHT22;29836;52.286;9.576;2024-03-22T11:20:22;12.60;99.90
44170;DHT22;29836;52.286;9.576;2024-03-22T11:22:48;12.70;99.90
44170;DHT22;29836;52.286;9.576;2024-03-22T11:25:13;12.70;99.90
44170;DHT22;29836;52.286;9.576;2024-03-22T11:27:39;12.80;99.90
44170;DHT22;29836;52.286;9.576;2024-03-22T11:30:05;12.80;99.90
44170;DHT22;29836;52.286;9.576;2024-03-22T11:32:30;12.80;99.90
44170;DHT22;29836;52.286;9.576;2024-03-22T11:34:56;12.80;99.90
44170;DHT22;29836;52.286;9.576;2024-03-22T11:37:22;12.80;99.90
44170;DHT22;29836;52.286;9.576;2024-03-22T11:39:48;12.80;99.90
44170;DHT22;29836;52.286;9.576;2024-03-22T11:42:15;12.80;99.90
44170;DHT22;29836;52.286;9.576;2024-03-22T11:44:42;12.80;99.90
44170;DHT22;29836;52.286;9.576;2024-03-22T11:47:08;12.70;99.90
44170;DHT22;29836;52.286;9.576;2024-03-22T11:49:34;12.80;99.90
44170;DHT22;29836;52.286;9.576;2024-03-22T11:52:00;12.80;99.90
44170;DHT22;29836;52.286;9.576;2024-03-22T11:54:26;12.70;99.90
44170;DHT22;29836;52.286;9.576;2024-03-22T11:56:52;12.80;99.90
44170;DHT22;29836;52.286;9.576;2024-03-22T11:59:20;12.80;99.90
44170;DHT22;29836;52.286;9.576;2024-03-22T12:01:46;12.80;99.90
44170;DHT22;29836;52.286;9.576;2024-03-22T12:04:12;12.90;99.90
44170;DHT22;29836;52.286;9.576;2024-03-22T12:06:44;12.80;99.90
44170;DHT22;29836;52.286;9.576;2024-03-22T12:09:11;12.80;99.90
44170;DHT22;29836;52.286;9.576;2024-03-22T12:11:38;12.80;99.90
44170;DHT22;29836;52.286;9.576;2024-03-22T12:14:04;12.80;99.90
44170;DHT22;29836;52.286;9.576;2024-03-22T12:16:30;12.80;99.90
44170;DHT22;29836;52.286;9.576;2024-03-22T12:18:55;12.80;99.90
44170;DHT22;29836;52.286;9.576;2024-03-22T12:21:21;12.80;99.90
44170;DHT22;29836;52.286;9.576;2024-03-22T12:23:46;12.70;99.90
44170;DHT22;29836;52.286;9.576;2024-03-22T12:26:12;12.70;99.90
44170;DHT22;29836;52.286;9.576;2024-03-22T12:28:38;12.70;99.90
44170;DHT22;29836;52.286;9.576;2024-03-22T12:31:04;12.60;99.90
44170;DHT22;29836;52.286;9.576;2024-03-22T12:33:30;12.50;99.90
44170;DHT22;29836;52.286;9.576;2024-03-22T12:35:55;12.50;99.90
44170;DHT22;29836;52.286;9.576;2024-03-22T12:38:21;12.50;99.90
44170;DHT22;29836;52.286;9.576;2024-03-22T12:40:46;12.50;99.90
44170;DHT22;29836;52.286;9.576;2024-03-22T12:43:12;12.50;99.90
44170;DHT22;29836;52.286;9.576;2024-03-22T12:45:38;12.40;99.90
44170;DHT22;29836;52.286;9.576;2024-03-22T12:48:04;12.40;99.90
44170;DHT22;29836;52.286;9.576;2024-03-22T12:50:30;12.30;99.90
44170;DHT22;29836;52.286;9.576;2024-03-22T12:52:56;12.30;99.90
44170;DHT22;29836;52.286;9.576;2024-03-22T12:55:21;12.20;99.90
44170;DHT22;29836;52.286;9.576;2024-03-22T12:57:47;12.30;99.90
44170;DHT22;29836;52.286;9.576;2024-03-22T13:00:13;12.30;99.90
44170;DHT22;29836;52.286;9.576;2024-03-22T13:02:43;12.30;99.90
44170;DHT22;29836;52.286;9.576;2024-03-22T13:05:09;12.30;99.90
44170;DHT22;29836;52.286;9.576;2024-03-22T13:07:35;12.30;99.90
44170;DHT22;29836;52.286;9.576;2024-03-22T13:10:01;12.20;99.90
44170;DHT22;29836;52.286;9.576;2024-03-22T13:12:27;12.10;99.90
44170;DHT22;29836;52.286;9.576;2024-03-22T13:14:54;12.10;99.90
44170;DHT22;29836;52.286;9.576;2024-03-22T13:17:20;12.00;99.90
44170;DHT22;29836;52.286;9.576;2024-03-22T13:19:46;11.90;99.90
44170;DHT22;29836;52.286;9.576;2024-03-22T13:22:11;11.80;99.90
44170;DHT22;29836;52.286;9.576;2024-03-22T13:24:37;11.80;99.90
44170;DHT22;29836;52.286;9.576;2024-03-22T13:27:03;11.70;99.90
44170;DHT22;29836;52.286;9.576;2024-03-22T13:29:29;11.70;99.90
44170;DHT22;29836;52.286;9.576;2024-03-22T13:31:54;11.60;99.90
44170;DHT22;29836;52.286;9.576;2024-03-22T13:34:20;11.60;99.90
44170;DHT22;29836;52.286;9.576;2024-03-22T13:36:46;11.60;99.90
44170;DHT22;29836;52.286;9.576;2024-03-22T13:39:12;11.50;99.90
44170;DHT22;29836;52.286;9.576;2024-03-22T13:41:41;11.50;99.90
44170;DHT22;29836;52.286;9.576;2024-03-22T13:44:06;11.60;99.90
44170;DHT22;29836;52.286;9.576;2024-03-22T13:46:33;11.50;99.90
44170;DHT22;29836;52.286;9.576;2024-03-22T13:49:03;11.50;99.90
44170;DHT22;29836;52.286;9.576;2024-03-22T13:51:30;11.60;99.90
44170;DHT22;29836;52.286;9.576;2024-03-22T13:53:57;11.60;99.90
44170;DHT22;29836;52.286;9.576;2024-03-22T13:56:22;11.60;99.90
44170;DHT22;29836;52.286;9.576;2024-03-22T13:58:48;11.60;99.90
44170;DHT22;29836;52.286;9.576;2024-03-22T14:01:14;11.60;99.90
44170;DHT22;29836;52.286;9.576;2024-03-22T14:03:40;11.60;99.90
44170;DHT22;29836;52.286;9.576;2024-03-22T14:06:05;11.60;99.90
44170;DHT22;29836;52.286;9.576;2024-03-22T14:08:31;11.50;99.90
44170;DHT22;29836;52.286;9.576;2024-03-22T14:10:57;11.50;99.90
44170;DHT22;29836;52.286;9.576;2024-03-22T14:13:22;11.50;99.90
44170;DHT22;29836;52.286;9.576;2024-03-22T14:15:48;11.50;99.90
44170;DHT22;29836;52.286;9.576;2024-03-22T14:18:13;11.50;99.90
44170;DHT22;29836;52.286;9.576;2024-03-22T14:20:39;11.50;99.90
44170;DHT22;29836;52.286;9.576;2024-03-22T14:23:04;11.60;99.90
44170;DHT22;29836;52.286;9.576;2024-03-22T14:25:32;11.70;99.90
44170;DHT22;29836;52.286;9.576;2024-03-22T14:27:58;11.70;99.90
44170;DHT22;29836;52.286;9.576;2024-03-22T14:30:23;11.70;99.90
44170;DHT22;29836;52.286;9.576;2024-03-22T14:32:50;11.60;99.90
44170;DHT22;29836;52.286;9.576;2024-03-22T14:35:16;11.60;99.90
44170;DHT22;29836;52.286;9.576;2024-03-22T14:37:42;11.50;99.90
44170;DHT22;29836;52.286;9.576;2024-03-22T14:40:08;11.30;99.90
44170;DHT22;29836;52.286;9.576;2024-03-22T14:42:39;11.10;99.90
44170;DHT22;29836;52.286;9.576;2024-03-22T14:45:04;11.00;99.90
44170;DHT22;29836;52.286;9.576;2024-03-22T14:47:30;10.80;99.90
44170;DHT22;29836;52.286;9.576;2024-03-22T14:49:56;10.70;99.90
44170;DHT22;29836;52.286;9.576;2024-03-22T14:52:21;10.60;99.90
44170;DHT22;29836;52.286;9.576;2024-03-22T14:54:47;10.60;99.90
44170;DHT22;29836;52.286;9.576;2024-03-22T14:57:13;10.60;99.90
44170;DHT22;29836;52.286;9.576;2024-03-22T14:59:38;10.60;99.90
44170;DHT22;29836;52.286;9.576;2024-03-22T15:02:05;10.60;99.90
44170;DHT22;29836;52.286;9.576;2024-03-22T15:04:30;10.60;99.90
44170;DHT22;29836;52.286;9.576;2024-03-22T15:06:56;10.60;99.90
44170;DHT22;29836;52.286;9.576;2024-03-22T15:09:21;10.60;99.90
44170;DHT22;29836;52.286;9.576;2024-03-22T15:11:49;10.50;99.90
44170;DHT22;29836;52.286;9.576;2024-03-22T15:14:15;10.40;99.90
44170;DHT22;29836;52.286;9.576;2024-03-22T15:16:42;10.40;99.90
44170;DHT22;29836;52.286;9.576;2024-03-22T15:19:10;10.30;99.90
44170;DHT22;29836;52.286;9.576;2024-03-22T15:21:37;10.30;99.90
44170;DHT22;29836;52.286;9.576;2024-03-22T15:24:03;10.20;99.90
44170;DHT22;29836;52.286;9.576;2024-03-22T15:26:29;10.10;99.90
44170;DHT22;29836;52.286;9.576;2024-03-22T15:28:54;10.10;99.90